createdAt,value
2017-10-04T00:02:01.017Z,6.10
2017-10-04T00:04:31.649Z,5.47
2017-10-04T00:07:03.295Z,4.23
2017-10-04T00:09:34.587Z,4.23
2017-10-04T00:12:04.979Z,4.63
2017-10-04T00:14:35.872Z,5.10
2017-10-04T00:17:07.034Z,4.47
2017-10-04T00:19:37.761Z,5.70
2017-10-04T00:22:09.861Z,4.47
2017-10-04T00:24:41.061Z,5.00
2017-10-04T00:27:11.777Z,5.00
2017-10-04T00:29:43.162Z,4.10
2017-10-04T00:32:14.235Z,4.53
2017-10-04T00:34:46.047Z,4.17
2017-10-04T00:37:17.211Z,5.40
2017-10-04T00:39:49.571Z,5.30
2017-10-04T00:42:20.658Z,4.00
2017-10-04T00:44:51.477Z,4.20
2017-10-04T00:47:22.925Z,4.73
2017-10-04T00:49:54.673Z,4.50
2017-10-04T00:52:25.587Z,4.57
2017-10-04T00:54:59.043Z,4.50
2017-10-04T00:57:29.838Z,5.27
2017-10-04T01:00:00.396Z,4.40
2017-10-04T01:02:32.429Z,4.33
2017-10-04T01:05:03.748Z,4.03
2017-10-04T01:07:35.598Z,4.37
2017-10-04T01:10:06.970Z,4.93
2017-10-04T01:12:38.479Z,4.00
2017-10-04T01:15:09.740Z,4.13
2017-10-04T01:17:40.834Z,3.60
2017-10-04T01:20:13.018Z,3.77
2017-10-04T01:22:45.524Z,4.00
2017-10-04T01:25:16.589Z,4.00
2017-10-04T01:27:47.935Z,4.27
2017-10-04T01:30:19.410Z,3.90
2017-10-04T01:32:50.200Z,4.47
2017-10-04T01:35:22.505Z,4.63
2017-10-04T01:37:53.972Z,3.80
2017-10-04T01:40:24.988Z,4.60
2017-10-04T01:42:57.494Z,5.00
2017-10-04T01:45:28.631Z,4.60
2017-10-04T01:47:59.898Z,4.20
2017-10-04T01:50:31.247Z,4.20
2017-10-04T01:53:03.016Z,3.43
2017-10-04T01:55:34.807Z,4.77
2017-10-04T01:58:05.908Z,4.50
2017-10-04T02:00:37.336Z,3.83
2017-10-04T02:03:08.142Z,4.30
2017-10-04T02:05:38.736Z,5.03
2017-10-04T02:08:09.850Z,4.93
2017-10-04T02:10:42.090Z,5.97
2017-10-04T02:13:12.494Z,4.70
2017-10-04T02:15:44.518Z,5.27
2017-10-04T02:18:15.759Z,4.37
2017-10-04T02:20:47.215Z,5.03
2017-10-04T02:23:17.918Z,4.63
2017-10-04T02:25:49.365Z,5.43
2017-10-04T02:28:20.101Z,5.53
2017-10-04T02:30:51.761Z,5.00
2017-10-04T02:33:22.964Z,5.83
2017-10-04T02:35:54.032Z,5.63
2017-10-04T02:38:24.591Z,6.00
2017-10-04T02:40:56.804Z,5.40
2017-10-04T02:43:28.266Z,5.93
2017-10-04T02:45:59.222Z,5.60
2017-10-04T02:48:30.276Z,5.10
2017-10-04T02:51:01.461Z,5.53
2017-10-04T02:53:32.371Z,5.43
2017-10-04T02:56:03.914Z,5.77
2017-10-04T02:58:34.370Z,5.90
2017-10-04T03:01:05.013Z,5.77
2017-10-04T03:03:36.508Z,5.13
2017-10-04T03:06:08.208Z,6.83
2017-10-04T03:08:39.004Z,6.00
2017-10-04T03:11:09.460Z,6.13
2017-10-04T03:13:40.267Z,6.00
2017-10-04T03:16:11.179Z,6.20
2017-10-04T03:18:42.353Z,5.70
2017-10-04T03:21:13.311Z,5.13
2017-10-04T03:23:44.836Z,5.87
2017-10-04T03:26:15.955Z,6.40
2017-10-04T03:28:47.255Z,6.27
2017-10-04T03:31:18.496Z,6.53
2017-10-04T03:33:49.551Z,5.90
2017-10-04T03:36:20.620Z,6.10
2017-10-04T03:38:51.523Z,6.07
2017-10-04T03:41:22.444Z,5.80
2017-10-04T03:43:54.509Z,6.30
2017-10-04T03:46:25.536Z,6.03
2017-10-04T03:48:56.423Z,6.27
2017-10-04T03:51:27.884Z,6.27
2017-10-04T03:53:58.831Z,6.37
2017-10-04T03:56:29.806Z,6.70
2017-10-04T03:59:00.929Z,5.83
2017-10-04T04:01:32.184Z,6.10
2017-10-04T04:04:02.733Z,6.20
2017-10-04T04:06:33.478Z,5.80
2017-10-04T04:09:05.833Z,5.80
2017-10-04T04:11:37.266Z,5.60
2017-10-04T04:14:07.601Z,5.50
2017-10-04T04:16:38.515Z,6.00
2017-10-04T04:19:09.425Z,6.13
2017-10-04T04:21:41.108Z,5.57
2017-10-04T04:24:12.911Z,6.20
2017-10-04T04:26:43.902Z,6.30
2017-10-04T04:29:14.724Z,6.50
2017-10-04T04:31:46.198Z,6.67
2017-10-04T04:34:18.328Z,6.30
2017-10-04T04:36:49.327Z,5.80
2017-10-04T04:39:20.298Z,6.40
2017-10-04T04:41:51.223Z,5.93
2017-10-04T04:44:21.987Z,5.60
2017-10-04T04:46:53.565Z,5.67
2017-10-04T04:49:24.720Z,5.30
2017-10-04T04:51:55.884Z,5.70
2017-10-04T04:54:27.102Z,5.60
2017-10-04T04:56:58.024Z,6.40
2017-10-04T04:59:28.689Z,6.10
2017-10-04T05:01:59.714Z,6.00
2017-10-04T05:04:31.615Z,6.00
2017-10-04T05:07:02.834Z,5.23
2017-10-04T05:09:33.366Z,5.70
2017-10-04T05:12:04.917Z,5.60
2017-10-04T05:14:45.800Z,5.50
2017-10-04T05:17:28.359Z,5.43
2017-10-04T05:20:04.208Z,5.20
2017-10-04T05:22:36.851Z,6.27
2017-10-04T05:25:08.045Z,5.70
2017-10-04T05:27:43.944Z,6.33
2017-10-04T05:30:14.614Z,5.77
2017-10-04T05:32:45.547Z,5.60
2017-10-04T05:35:17.204Z,6.43
2017-10-04T05:37:48.291Z,6.13
2017-10-04T05:40:19.550Z,6.10
2017-10-04T05:42:50.794Z,5.90
2017-10-04T05:45:22.301Z,5.57
2017-10-04T05:47:53.963Z,6.17
2017-10-04T05:50:24.997Z,6.17
2017-10-04T05:52:56.077Z,5.87
2017-10-04T05:55:26.746Z,5.70
2017-10-04T05:57:58.565Z,5.93
2017-10-04T06:00:30.656Z,5.87
2017-10-04T06:03:01.443Z,5.40
2017-10-04T06:05:32.816Z,5.37
2017-10-04T06:08:03.568Z,5.83
2017-10-04T06:10:34.820Z,6.10
2017-10-04T06:13:05.674Z,5.40
2017-10-04T06:15:36.242Z,6.20
2017-10-04T06:18:07.583Z,5.33
2017-10-04T06:20:39.245Z,6.33
2017-10-04T06:23:10.755Z,5.30
2017-10-04T06:25:41.955Z,5.40
2017-10-04T06:28:13.616Z,4.50
2017-10-04T06:30:45.468Z,6.30
2017-10-04T06:33:17.343Z,5.07
2017-10-04T06:35:49.344Z,5.93
2017-10-04T06:38:22.703Z,5.47
2017-10-04T06:40:54.680Z,5.87
2017-10-04T06:43:27.531Z,6.30
2017-10-04T06:45:58.589Z,5.17
2017-10-04T06:48:29.543Z,5.80
2017-10-04T06:51:10.312Z,5.33
2017-10-04T06:53:41.644Z,6.27
2017-10-04T06:56:14.187Z,5.10
2017-10-04T06:58:46.791Z,5.33
2017-10-04T07:01:18.378Z,5.83
2017-10-04T07:03:50.341Z,5.27
2017-10-04T07:06:22.448Z,5.43
2017-10-04T07:08:53.882Z,5.00
2017-10-04T07:11:26.465Z,5.30
2017-10-04T07:13:58.148Z,6.10
2017-10-04T07:16:29.621Z,5.47
2017-10-04T07:19:00.917Z,5.00
2017-10-04T07:21:32.907Z,4.70
2017-10-04T07:24:05.070Z,5.97
2017-10-04T07:26:36.140Z,5.37
2017-10-04T07:29:08.368Z,5.27
2017-10-04T07:31:39.472Z,4.60
2017-10-04T07:34:11.021Z,5.23
2017-10-04T07:36:46.782Z,5.57
2017-10-04T07:39:18.776Z,6.03
2017-10-04T07:41:50.437Z,4.73
2017-10-04T07:44:22.897Z,5.17
2017-10-04T07:46:54.572Z,5.50
2017-10-04T07:49:27.540Z,5.37
2017-10-04T07:52:07.393Z,5.20
2017-10-04T07:54:39.280Z,4.80
2017-10-04T07:57:10.339Z,4.40
2017-10-04T07:59:42.012Z,5.47
2017-10-04T08:02:13.782Z,5.40
2017-10-04T08:04:44.574Z,5.10
2017-10-04T08:07:16.104Z,5.53
2017-10-04T08:09:48.155Z,5.13
2017-10-04T08:12:19.272Z,5.13
2017-10-04T08:14:51.060Z,5.23
2017-10-04T08:17:24.361Z,5.67
2017-10-04T08:19:55.167Z,5.00
2017-10-04T08:22:26.118Z,5.27
2017-10-04T08:24:56.577Z,4.70
2017-10-04T08:27:27.896Z,5.43
2017-10-04T08:29:58.407Z,5.23
2017-10-04T08:32:32.267Z,4.83
2017-10-04T08:35:03.406Z,5.00
2017-10-04T08:37:33.947Z,4.90
2017-10-04T08:40:05.683Z,4.77
2017-10-04T08:42:36.967Z,4.90
2017-10-04T08:45:08.707Z,4.13
2017-10-04T08:47:56.836Z,4.63
2017-10-04T08:50:27.771Z,4.90
2017-10-04T08:52:59.964Z,4.50
2017-10-04T08:55:31.494Z,4.37
2017-10-04T08:58:03.270Z,4.57
2017-10-04T09:00:34.714Z,4.63
2017-10-04T09:03:07.085Z,4.43
2017-10-04T09:08:22.388Z,4.93
2017-10-04T09:10:53.806Z,5.17
2017-10-04T09:13:24.794Z,4.60
2017-10-04T09:15:55.968Z,5.23
2017-10-04T09:18:26.763Z,4.87
2017-10-04T09:20:57.256Z,5.40
2017-10-04T09:23:28.288Z,4.30
2017-10-04T09:25:58.740Z,4.70
2017-10-04T09:28:29.827Z,5.20
2017-10-04T09:31:01.878Z,5.53
2017-10-04T09:33:34.078Z,5.33
2017-10-04T09:36:05.236Z,4.70
2017-10-04T09:38:36.657Z,6.07
2017-10-04T09:41:07.334Z,5.47
2017-10-04T09:43:37.958Z,4.70
2017-10-04T09:46:08.800Z,5.00
2017-10-04T09:48:39.333Z,5.00
2017-10-04T09:51:10.034Z,4.77
2017-10-04T09:53:40.492Z,5.53
2017-10-04T09:56:11.358Z,4.90
2017-10-04T09:58:41.864Z,4.40
2017-10-04T10:01:12.685Z,4.53
2017-10-04T10:03:43.390Z,4.53
2017-10-04T10:06:16.247Z,4.10
2017-10-04T10:08:46.758Z,4.87
2017-10-04T10:11:17.806Z,4.87
2017-10-04T10:13:48.830Z,4.70
2017-10-04T10:16:19.789Z,4.90
2017-10-04T10:18:50.528Z,4.27
2017-10-04T10:21:22.873Z,5.10
2017-10-04T10:23:53.751Z,4.60
2017-10-04T10:26:25.484Z,5.03
2017-10-04T10:28:57.358Z,4.93
2017-10-04T10:31:30.438Z,5.70
2017-10-04T10:34:02.454Z,5.30
2017-10-04T10:36:33.382Z,5.90
2017-10-04T10:39:04.658Z,5.93
2017-10-04T10:41:35.902Z,5.63
2017-10-04T10:44:07.456Z,5.10
2017-10-04T10:46:38.476Z,5.77
2017-10-04T10:49:09.275Z,6.10
2017-10-04T10:51:39.962Z,5.80
2017-10-04T10:54:10.761Z,6.00
2017-10-04T10:56:42.662Z,6.07
2017-10-04T10:59:13.349Z,5.47
2017-10-04T11:01:43.760Z,5.87
2017-10-04T11:04:14.233Z,5.57
2017-10-04T11:06:44.750Z,4.97
2017-10-04T11:09:15.612Z,5.33
2017-10-04T11:11:46.175Z,4.93
2017-10-04T11:14:16.714Z,5.87
2017-10-04T11:16:47.268Z,5.33
2017-10-04T11:19:17.720Z,5.60
2017-10-04T11:21:48.552Z,6.50
2017-10-04T11:24:19.664Z,4.97
2017-10-04T11:26:50.237Z,5.30
2017-10-04T11:29:20.780Z,5.20
2017-10-04T11:31:51.258Z,6.67
2017-10-04T11:34:22.629Z,5.57
2017-10-04T11:36:53.426Z,5.53
2017-10-04T11:39:23.976Z,4.87
2017-10-04T11:41:54.581Z,5.30
2017-10-04T11:44:25.499Z,5.50
2017-10-04T11:46:56.139Z,5.07
2017-10-04T11:49:27.106Z,5.13
2017-10-04T11:51:59.377Z,4.10
2017-10-04T11:54:30.821Z,4.13
2017-10-04T11:57:02.979Z,4.97
2017-10-04T11:59:33.851Z,5.50
2017-10-04T12:02:04.792Z,4.63
2017-10-04T12:04:35.804Z,4.63
2017-10-04T12:07:07.055Z,4.70
2017-10-04T12:09:37.459Z,5.33
2017-10-04T12:12:08.052Z,4.30
2017-10-04T12:14:38.723Z,4.50
2017-10-04T12:17:09.441Z,4.73
2017-10-04T12:19:40.940Z,4.73
2017-10-04T12:22:12.472Z,5.20
2017-10-04T12:24:45.326Z,5.23
2017-10-04T12:27:15.761Z,4.83
2017-10-04T12:29:46.585Z,5.10
2017-10-04T12:32:17.343Z,5.57
2017-10-04T12:34:48.214Z,5.90
2017-10-04T12:37:20.747Z,5.70
2017-10-04T12:39:51.797Z,5.17
2017-10-04T12:42:23.052Z,5.40
2017-10-04T12:44:54.534Z,6.10
2017-10-04T12:47:25.558Z,5.60
2017-10-04T12:49:56.356Z,5.83
2017-10-04T12:52:26.732Z,5.23
2017-10-04T12:54:57.329Z,5.63
2017-10-04T12:57:29.263Z,5.33
2017-10-04T13:00:00.301Z,5.80
2017-10-04T13:02:31.620Z,6.00
2017-10-04T13:05:02.514Z,6.00
2017-10-04T13:07:33.571Z,5.57
2017-10-04T13:10:04.301Z,6.00
2017-10-04T13:12:34.964Z,6.50
2017-10-04T13:15:06.409Z,5.90
2017-10-04T13:17:37.413Z,6.03
2017-10-04T13:20:08.840Z,5.33
2017-10-04T13:22:40.093Z,5.47
2017-10-04T13:25:10.622Z,6.43
2017-10-04T13:27:42.289Z,5.70
2017-10-04T13:30:12.905Z,5.87
2017-10-04T13:32:51.422Z,6.53
2017-10-04T13:35:30.161Z,6.50
2017-10-04T13:38:01.766Z,5.67
2017-10-04T13:40:40.726Z,5.60
2017-10-04T13:43:11.326Z,5.67
2017-10-04T13:45:42.155Z,5.10
2017-10-04T13:48:12.517Z,6.07
2017-10-04T13:50:43.178Z,6.03
2017-10-04T13:53:13.892Z,5.57
2017-10-04T13:55:46.539Z,5.60
2017-10-04T13:58:17.160Z,6.20
2017-10-04T14:00:47.622Z,5.20
2017-10-04T14:03:19.040Z,6.30
2017-10-04T14:05:49.473Z,5.53
2017-10-04T14:08:19.940Z,5.47
2017-10-04T14:10:51.754Z,5.53
2017-10-04T14:13:22.529Z,5.70
2017-10-04T14:15:53.137Z,5.37
2017-10-04T14:18:24.448Z,5.80
2017-10-04T14:20:55.789Z,6.13
2017-10-04T14:23:27.878Z,5.70
2017-10-04T14:25:58.486Z,5.77
2017-10-04T14:28:30.348Z,5.90
2017-10-04T14:31:01.257Z,4.80
2017-10-04T14:33:32.835Z,6.03
2017-10-04T14:36:04.087Z,5.70
2017-10-04T14:38:35.429Z,5.73
2017-10-04T14:41:06.828Z,6.20
2017-10-04T14:43:37.721Z,4.80
2017-10-04T14:46:08.679Z,4.70
2017-10-04T14:48:39.118Z,5.83
2017-10-04T14:51:09.980Z,5.43
2017-10-04T14:53:40.543Z,5.30
2017-10-04T14:56:11.035Z,5.33
2017-10-04T14:58:42.684Z,5.70
2017-10-04T15:01:14.674Z,5.20
2017-10-04T15:03:46.555Z,5.03
2017-10-04T15:06:17.732Z,4.93
2017-10-04T15:08:51.382Z,4.17
2017-10-04T15:11:22.948Z,5.17
2017-10-04T15:13:54.467Z,5.10
2017-10-04T15:16:27.070Z,4.70
2017-10-04T15:18:58.381Z,4.33
2017-10-04T15:21:29.398Z,3.80
2017-10-04T15:24:00.149Z,4.07
2017-10-04T15:26:30.860Z,4.00
2017-10-04T15:29:03.677Z,3.80
2017-10-04T15:31:35.995Z,4.00
2017-10-04T15:34:07.294Z,4.07
2017-10-04T15:36:38.148Z,4.10
2017-10-04T15:39:08.702Z,3.83
2017-10-04T15:41:39.460Z,4.10
2017-10-04T15:44:11.618Z,4.17
2017-10-04T15:46:43.358Z,4.17
2017-10-04T15:49:13.967Z,4.37
2017-10-04T15:51:54.510Z,4.40
2017-10-04T15:54:26.624Z,4.50
2017-10-04T15:56:57.982Z,4.47
2017-10-04T15:59:29.372Z,4.53
2017-10-04T16:02:00.933Z,4.63
2017-10-04T16:04:32.883Z,4.07
2017-10-04T16:07:03.602Z,4.70
2017-10-04T16:09:35.887Z,4.50
2017-10-04T16:12:07.661Z,4.93
2017-10-04T16:14:38.558Z,3.93
2017-10-04T16:17:10.150Z,4.10
2017-10-04T16:19:41.222Z,4.50
2017-10-04T16:22:12.336Z,4.00
2017-10-04T16:24:44.259Z,4.00
2017-10-04T16:27:16.073Z,4.27
2017-10-04T16:29:47.356Z,3.87
2017-10-04T16:32:19.013Z,4.80
2017-10-04T16:34:50.644Z,3.50
2017-10-04T16:37:21.630Z,4.00
2017-10-04T16:39:52.739Z,4.10
2017-10-04T16:42:23.775Z,3.90
2017-10-04T16:44:55.667Z,3.30
2017-10-04T16:47:27.224Z,3.33
2017-10-04T16:49:59.040Z,3.23
2017-10-04T16:52:29.527Z,3.07
2017-10-04T16:55:01.116Z,3.07
2017-10-04T16:57:32.265Z,3.20
2017-10-04T17:02:42.214Z,2.70
2017-10-04T17:05:13.675Z,3.40
2017-10-04T17:07:44.928Z,3.23
2017-10-04T17:10:16.081Z,3.20
2017-10-04T17:12:48.506Z,2.80
2017-10-04T17:15:19.406Z,2.93
2017-10-04T17:17:51.697Z,2.90
2017-10-04T17:20:22.243Z,2.93
2017-10-04T17:22:53.910Z,3.53
2017-10-04T17:25:26.188Z,3.20
2017-10-04T17:27:57.036Z,2.80
2017-10-04T17:30:28.576Z,2.57
2017-10-04T17:32:59.092Z,2.70
2017-10-04T17:35:29.909Z,2.30
2017-10-04T17:38:01.464Z,2.60
2017-10-04T17:40:33.662Z,3.23
2017-10-04T17:43:05.090Z,2.90
2017-10-04T17:45:35.820Z,3.00
2017-10-04T17:48:07.677Z,3.00
2017-10-04T17:50:39.838Z,2.80
2017-10-04T17:53:11.049Z,3.30
2017-10-04T17:55:41.728Z,3.50
2017-10-04T17:58:12.596Z,2.93
2017-10-04T18:00:43.924Z,3.40
2017-10-04T18:03:14.600Z,3.07
2017-10-04T18:05:45.419Z,3.30
2017-10-04T18:08:16.758Z,3.13
2017-10-04T18:10:48.654Z,3.50
2017-10-04T18:13:19.617Z,3.30
2017-10-04T18:15:50.432Z,2.60
2017-10-04T18:18:21.328Z,2.90
2017-10-04T18:20:52.427Z,4.07
2017-10-04T18:23:24.418Z,3.40
2017-10-04T18:25:58.125Z,2.60
2017-10-04T18:28:29.100Z,3.23
2017-10-04T18:31:00.904Z,3.00
2017-10-04T18:33:32.658Z,2.83
2017-10-04T18:36:03.786Z,2.90
2017-10-04T18:38:35.761Z,3.40
2017-10-04T18:41:08.008Z,3.40
2017-10-04T18:43:39.181Z,3.60
2017-10-04T18:46:11.607Z,3.60
2017-10-04T18:48:42.688Z,3.30
2017-10-04T18:51:14.435Z,3.37
2017-10-04T18:53:46.122Z,3.00
2017-10-04T18:56:18.472Z,3.20
2017-10-04T18:58:49.264Z,3.43
2017-10-04T19:01:20.872Z,3.30
2017-10-04T19:03:52.965Z,3.33
2017-10-04T19:06:25.814Z,2.90
2017-10-04T19:08:57.804Z,3.30
2017-10-04T19:11:28.768Z,3.33
2017-10-04T19:14:01.321Z,3.03
2017-10-04T19:16:32.254Z,3.40
2017-10-04T19:19:03.064Z,2.80
2017-10-04T19:21:34.615Z,3.03
2017-10-04T19:24:06.187Z,3.20
2017-10-04T19:26:36.921Z,2.90
2017-10-04T19:29:08.913Z,3.13
2017-10-04T19:31:40.386Z,3.03
2017-10-04T19:34:11.162Z,3.43
2017-10-04T19:36:43.232Z,3.90
2017-10-04T19:39:14.367Z,3.60
2017-10-04T19:41:45.458Z,2.70
2017-10-04T19:44:17.003Z,3.20
2017-10-04T19:46:48.206Z,3.10
2017-10-04T19:49:19.778Z,2.60
2017-10-04T19:51:52.027Z,2.77
2017-10-04T19:54:23.405Z,2.90
2017-10-04T19:56:58.459Z,3.10
2017-10-04T19:59:32.446Z,2.70
2017-10-04T20:02:03.551Z,3.10
2017-10-04T20:04:37.300Z,3.33
2017-10-04T20:07:16.489Z,3.47
2017-10-04T20:09:51.232Z,3.13
2017-10-04T20:12:25.324Z,3.33
2017-10-04T20:15:03.039Z,2.90
2017-10-04T20:17:35.228Z,3.10
2017-10-04T20:20:06.910Z,3.30
2017-10-04T20:22:40.011Z,2.67
2017-10-04T20:25:12.209Z,2.87
2017-10-04T20:27:46.146Z,3.33
2017-10-04T20:30:16.568Z,3.17
2017-10-04T20:32:47.889Z,3.30
2017-10-04T20:35:18.596Z,3.67
2017-10-04T20:37:50.586Z,3.27
2017-10-04T20:40:21.778Z,3.07
2017-10-04T20:42:52.380Z,3.37
2017-10-04T20:45:23.149Z,3.80
2017-10-04T20:47:53.792Z,3.40
2017-10-04T20:50:25.416Z,3.10
2017-10-04T20:52:56.368Z,4.07
2017-10-04T20:55:27.696Z,3.97
2017-10-04T20:57:59.240Z,4.40
2017-10-04T21:00:30.684Z,3.60
2017-10-04T21:03:01.771Z,4.70
2017-10-04T21:05:33.101Z,4.40
2017-10-04T21:08:05.232Z,3.87
2017-10-04T21:10:35.865Z,4.83
2017-10-04T21:13:08.602Z,3.67
2017-10-04T21:15:43.337Z,3.60
2017-10-04T21:18:15.167Z,4.03
2017-10-04T21:20:47.167Z,4.47
2017-10-04T21:23:26.028Z,4.30
2017-10-04T21:26:18.666Z,4.27
2017-10-04T21:28:50.741Z,3.63
2017-10-04T21:31:23.136Z,4.70
2017-10-04T21:33:55.795Z,3.97
2017-10-04T21:36:29.451Z,4.43
2017-10-04T21:39:09.928Z,5.00
2017-10-04T21:41:47.318Z,5.60
2017-10-04T21:44:18.955Z,5.90
2017-10-04T21:46:55.567Z,5.10
2017-10-04T21:49:34.334Z,4.33
2017-10-04T21:52:07.746Z,5.00
2017-10-04T21:54:43.629Z,5.97
2017-10-04T21:57:18.843Z,4.93
2017-10-04T21:59:50.034Z,5.03
2017-10-04T22:02:32.203Z,5.10
2017-10-04T22:05:13.569Z,5.50
2017-10-04T22:07:48.953Z,5.97
2017-10-04T22:10:20.841Z,6.40
2017-10-04T22:12:54.015Z,5.67
2017-10-04T22:15:25.395Z,5.73
2017-10-04T22:17:57.406Z,5.80
2017-10-04T22:20:27.849Z,5.70
2017-10-04T22:22:58.708Z,6.57
2017-10-04T22:25:29.315Z,6.63
2017-10-04T22:28:01.521Z,5.90
2017-10-04T22:30:33.774Z,6.40
2017-10-04T22:33:04.440Z,7.37
2017-10-04T22:35:35.844Z,7.10
2017-10-04T22:38:09.037Z,6.50
2017-10-04T22:40:39.687Z,6.90
2017-10-04T22:43:11.269Z,6.13
2017-10-04T22:45:42.064Z,7.27
2017-10-04T22:48:12.904Z,7.17
2017-10-04T22:50:44.311Z,6.70
2017-10-04T22:53:16.259Z,6.20
2017-10-04T22:55:46.922Z,7.20
2017-10-04T22:58:20.211Z,8.23
2017-10-04T23:00:52.103Z,7.37
2017-10-04T23:03:24.457Z,7.80
2017-10-04T23:05:55.124Z,7.70
2017-10-04T23:08:26.193Z,7.27
2017-10-04T23:10:57.875Z,7.80
2017-10-04T23:13:32.099Z,8.30
2017-10-04T23:16:03.029Z,9.23
2017-10-04T23:18:33.902Z,8.60
2017-10-04T23:21:05.087Z,9.23
2017-10-04T23:23:35.412Z,9.77
2017-10-04T23:26:06.787Z,9.90
2017-10-04T23:28:40.472Z,10.40
2017-10-04T23:31:10.954Z,9.33
2017-10-04T23:33:42.761Z,11.23
2017-10-04T23:36:15.255Z,10.50
2017-10-04T23:38:45.868Z,10.70
2017-10-04T23:41:18.546Z,11.20
2017-10-04T23:43:48.893Z,11.33
2017-10-04T23:46:22.736Z,11.27
2017-10-04T23:48:55.261Z,11.07
2017-10-04T23:51:26.321Z,11.57
2017-10-04T23:53:57.007Z,11.77
2017-10-04T23:56:32.222Z,11.30
2017-10-04T23:59:03.068Z,10.00
